createdAt,value
2018-11-25T00:00:54.399Z,859.92
2018-11-25T00:01:54.041Z,859.89
2018-11-25T00:02:54.388Z,859.84
2018-11-25T00:03:54.334Z,859.82
2018-11-25T00:04:54.034Z,859.84
2018-11-25T00:05:53.980Z,859.77
2018-11-25T00:06:54.008Z,859.72
2018-11-25T00:07:53.965Z,859.63
2018-11-25T00:08:54.308Z,859.63
2018-11-25T00:09:53.976Z,859.75
2018-11-25T00:10:54.292Z,859.64
2018-11-25T00:11:53.939Z,859.62
2018-11-25T00:12:53.966Z,859.65
2018-11-25T00:13:53.922Z,859.60
2018-11-25T00:14:53.924Z,859.57
2018-11-25T00:15:54.262Z,859.58
2018-11-25T00:16:54.245Z,859.50
2018-11-25T00:17:54.227Z,859.41
2018-11-25T00:18:54.247Z,859.31
2018-11-25T00:19:54.206Z,859.24
2018-11-25T00:20:54.241Z,859.31
2018-11-25T00:21:54.200Z,859.38
2018-11-25T00:22:53.847Z,859.42
2018-11-25T00:23:54.220Z,859.46
2018-11-25T00:24:53.864Z,859.52
2018-11-25T00:25:54.168Z,859.50
2018-11-25T00:26:54.158Z,859.45
2018-11-25T00:27:53.848Z,859.39
2018-11-25T00:28:53.814Z,859.44
2018-11-25T00:29:53.805Z,859.48
2018-11-25T00:30:53.840Z,859.47
2018-11-25T00:31:53.823Z,859.43
2018-11-25T00:32:53.814Z,859.38
2018-11-25T00:33:53.816Z,859.39
2018-11-25T00:34:54.146Z,859.36
2018-11-25T00:35:54.098Z,859.33
2018-11-25T00:36:53.748Z,859.32
2018-11-25T00:37:54.094Z,859.38
2018-11-25T00:38:53.742Z,859.37
2018-11-25T00:39:53.776Z,859.33
2018-11-25T00:40:53.752Z,859.30
2018-11-25T00:41:53.759Z,859.31
2018-11-25T00:42:54.043Z,859.31
2018-11-25T00:43:53.719Z,859.26
2018-11-25T00:44:54.029Z,859.21
2018-11-25T00:45:54.074Z,859.14
2018-11-25T00:46:54.073Z,859.09
2018-11-25T00:47:54.025Z,859.11
2018-11-25T00:48:53.700Z,859.16
2018-11-25T00:49:53.665Z,859.11
2018-11-25T00:50:54.227Z,859.03
2018-11-25T00:51:53.679Z,858.95
2018-11-25T00:52:53.981Z,858.90
2018-11-25T00:53:53.989Z,858.89
2018-11-25T00:54:53.652Z,858.85
2018-11-25T00:55:53.666Z,858.84
2018-11-25T00:56:53.643Z,858.83
2018-11-25T00:57:53.605Z,858.86
2018-11-25T00:58:53.635Z,858.88
2018-11-25T00:59:53.622Z,858.89
2018-11-25T01:00:53.964Z,858.90
2018-11-25T01:01:53.596Z,858.84
2018-11-25T01:02:53.917Z,858.83
2018-11-25T01:03:53.595Z,858.79
2018-11-25T01:04:53.900Z,858.76
2018-11-25T01:05:53.906Z,858.74
2018-11-25T01:06:53.896Z,858.74
2018-11-25T01:07:53.563Z,858.71
2018-11-25T01:08:53.528Z,858.67
2018-11-25T01:09:53.513Z,858.67
2018-11-25T01:10:53.855Z,858.65
2018-11-25T01:11:53.534Z,858.61
2018-11-25T01:12:53.873Z,858.65
2018-11-25T01:13:53.485Z,858.66
2018-11-25T01:14:53.482Z,858.70
2018-11-25T01:15:53.816Z,858.69
2018-11-25T01:16:53.502Z,858.67
2018-11-25T01:17:53.816Z,858.65
2018-11-25T01:18:53.445Z,858.57
2018-11-25T01:19:53.823Z,858.53
2018-11-25T01:20:53.460Z,858.49
2018-11-25T01:21:53.439Z,858.46
2018-11-25T01:22:53.771Z,858.43
2018-11-25T01:23:53.794Z,858.36
2018-11-25T01:24:53.785Z,858.35
2018-11-25T01:25:53.412Z,858.33
2018-11-25T01:26:53.771Z,858.37
2018-11-25T01:27:53.386Z,858.35
2018-11-25T01:28:53.418Z,858.26
2018-11-25T01:29:53.382Z,858.18
2018-11-25T01:30:53.408Z,858.16
2018-11-25T01:31:53.736Z,858.09
2018-11-25T01:32:53.386Z,858.08
2018-11-25T01:33:53.688Z,858.00
2018-11-25T01:35:00.936Z,857.87
2018-11-25T01:35:53.709Z,857.84
2018-11-25T01:36:53.648Z,857.85
2018-11-25T01:37:53.341Z,857.85
2018-11-25T01:38:53.699Z,857.76
2018-11-25T01:39:53.656Z,857.77
2018-11-25T01:40:53.660Z,857.76
2018-11-25T01:41:53.636Z,857.80
2018-11-25T01:42:53.321Z,857.76
2018-11-25T01:43:53.299Z,857.73
2018-11-25T01:44:53.596Z,857.65
2018-11-25T01:45:53.248Z,857.66
2018-11-25T01:46:53.596Z,857.66
2018-11-25T01:47:53.592Z,857.69
2018-11-25T01:48:53.566Z,857.72
2018-11-25T01:49:53.603Z,857.74
2018-11-25T01:50:53.584Z,857.79
2018-11-25T01:51:53.553Z,857.75
2018-11-25T01:52:53.204Z,857.70
2018-11-25T01:53:53.537Z,857.73
2018-11-25T01:54:53.534Z,857.67
2018-11-25T01:55:53.191Z,857.56
2018-11-25T01:56:53.170Z,857.50
2018-11-25T01:57:53.202Z,857.46
2018-11-25T01:58:53.203Z,857.43
2018-11-25T01:59:53.165Z,857.39
2018-11-25T02:00:53.497Z,857.30
2018-11-25T02:01:53.182Z,857.26
2018-11-25T02:02:53.462Z,857.24
2018-11-25T02:03:53.161Z,857.20
2018-11-25T02:04:53.458Z,857.19
2018-11-25T02:05:53.500Z,857.20
2018-11-25T02:06:53.491Z,857.21
2018-11-25T02:07:53.106Z,857.28
2018-11-25T02:08:53.421Z,857.29
2018-11-25T02:09:53.440Z,857.35
2018-11-25T02:10:53.112Z,857.33
2018-11-25T02:11:53.078Z,857.38
2018-11-25T02:12:53.415Z,857.36
2018-11-25T02:13:53.386Z,857.38
2018-11-25T02:14:53.049Z,857.36
2018-11-25T02:15:53.383Z,857.37
2018-11-25T02:16:53.035Z,857.37
2018-11-25T02:17:53.018Z,857.29
2018-11-25T02:18:53.362Z,857.29
2018-11-25T02:19:53.338Z,857.29
2018-11-25T02:20:53.039Z,857.35
2018-11-25T02:21:53.029Z,857.39
2018-11-25T02:22:52.991Z,857.46
2018-11-25T02:23:52.983Z,857.55
2018-11-25T02:24:52.982Z,857.52
2018-11-25T02:25:53.345Z,857.46
2018-11-25T02:26:52.982Z,857.43
2018-11-25T02:27:53.301Z,857.42
2018-11-25T02:28:53.290Z,857.38
2018-11-25T02:29:53.289Z,857.37
2018-11-25T02:30:52.932Z,857.32
2018-11-25T02:31:53.297Z,857.27
2018-11-25T02:32:52.956Z,857.19
2018-11-25T02:33:52.910Z,857.14
2018-11-25T02:34:53.275Z,857.09
2018-11-25T02:35:52.933Z,857.04
2018-11-25T02:36:53.214Z,857.00
2018-11-25T02:37:53.267Z,856.92
2018-11-25T02:38:53.224Z,856.84
2018-11-25T02:39:52.860Z,856.79
2018-11-25T02:40:52.869Z,856.78
2018-11-25T02:41:53.240Z,856.79
2018-11-25T02:42:52.883Z,856.77
2018-11-25T02:43:53.176Z,856.79
2018-11-25T02:44:53.207Z,856.72
2018-11-25T02:45:53.150Z,856.70
2018-11-25T02:46:53.183Z,856.67
2018-11-25T02:47:53.134Z,856.57
2018-11-25T02:48:53.162Z,856.55
2018-11-25T02:49:52.821Z,856.43
2018-11-25T02:50:53.169Z,856.45
2018-11-25T02:51:52.772Z,856.35
2018-11-25T02:52:53.109Z,856.32
2018-11-25T02:53:52.767Z,856.31
2018-11-25T02:54:52.754Z,856.38
2018-11-25T02:55:53.086Z,856.41
2018-11-25T02:56:53.081Z,856.40
2018-11-25T02:57:52.761Z,856.46
2018-11-25T02:58:52.722Z,856.55
2018-11-25T02:59:52.731Z,856.50
2018-11-25T03:00:53.093Z,856.39
2018-11-25T03:01:52.712Z,856.24
2018-11-25T03:02:53.060Z,856.22
2018-11-25T03:03:53.032Z,856.17
2018-11-25T03:04:53.070Z,856.12
2018-11-25T03:05:52.708Z,856.08
2018-11-25T03:06:52.667Z,855.97
2018-11-25T03:07:52.670Z,855.91
2018-11-25T03:08:52.685Z,856.00
2018-11-25T03:09:52.977Z,856.00
2018-11-25T03:10:52.998Z,856.01
2018-11-25T03:11:52.645Z,856.01
2018-11-25T03:12:52.971Z,856.00
2018-11-25T03:13:52.661Z,855.99
2018-11-25T03:14:52.647Z,855.92
2018-11-25T03:15:52.630Z,855.94
2018-11-25T03:16:52.599Z,855.89
2018-11-25T03:17:52.661Z,855.83
2018-11-25T03:18:52.585Z,855.78
2018-11-25T03:19:52.602Z,855.70
2018-11-25T03:20:52.578Z,855.64
2018-11-25T03:21:52.909Z,855.54
2018-11-25T03:22:52.557Z,855.47
2018-11-25T03:23:52.593Z,855.38
2018-11-25T03:24:53.251Z,855.36
2018-11-25T03:25:52.553Z,855.30
2018-11-25T03:26:52.559Z,855.38
2018-11-25T03:27:52.519Z,855.34
2018-11-25T03:28:52.530Z,855.31
2018-11-25T03:29:52.510Z,855.34
2018-11-25T03:30:52.533Z,855.38
2018-11-25T03:31:52.875Z,855.38
2018-11-25T03:32:52.531Z,855.41
2018-11-25T03:33:52.816Z,855.42
2018-11-25T03:34:52.503Z,855.38
2018-11-25T03:35:52.814Z,855.38
2018-11-25T03:36:52.506Z,855.41
2018-11-25T03:37:52.456Z,855.42
2018-11-25T03:38:52.453Z,855.39
2018-11-25T03:39:52.445Z,855.35
2018-11-25T03:40:52.461Z,855.39
2018-11-25T03:41:52.459Z,855.36
2018-11-25T03:42:52.438Z,855.36
2018-11-25T03:43:52.737Z,855.42
2018-11-25T03:44:52.784Z,855.36
2018-11-25T03:45:52.740Z,855.34
2018-11-25T03:46:52.427Z,855.41
2018-11-25T03:47:52.420Z,855.41
2018-11-25T03:48:52.419Z,855.41
2018-11-25T03:49:52.400Z,855.47
2018-11-25T03:50:52.364Z,855.50
2018-11-25T03:51:52.350Z,855.44
2018-11-25T03:52:52.717Z,855.37
2018-11-25T03:53:52.710Z,855.30
2018-11-25T03:54:52.683Z,855.36
2018-11-25T03:55:52.706Z,855.29
2018-11-25T03:56:52.364Z,855.24
2018-11-25T03:57:52.328Z,855.11
2018-11-25T03:58:52.661Z,855.01
2018-11-25T03:59:52.632Z,855.07
2018-11-25T04:00:52.657Z,855.11
2018-11-25T04:01:52.626Z,855.11
2018-11-25T04:02:52.630Z,855.04
2018-11-25T04:03:52.300Z,854.98
2018-11-25T04:04:52.600Z,855.01
2018-11-25T04:05:52.259Z,854.99
2018-11-25T04:06:52.288Z,855.03
2018-11-25T04:07:52.562Z,855.00
2018-11-25T04:08:52.564Z,855.00
2018-11-25T04:09:52.216Z,855.02
2018-11-25T04:10:52.930Z,854.93
2018-11-25T04:11:52.218Z,854.89
2018-11-25T04:12:52.541Z,854.87
2018-11-25T04:13:52.196Z,854.92
2018-11-25T04:14:52.544Z,854.93
2018-11-25T04:15:52.195Z,854.91
2018-11-25T04:16:52.546Z,854.86
2018-11-25T04:17:52.212Z,854.79
2018-11-25T04:18:52.521Z,854.71
2018-11-25T04:19:52.193Z,854.69
2018-11-25T04:20:52.476Z,854.71
2018-11-25T04:21:52.135Z,854.74
2018-11-25T04:22:52.167Z,854.66
2018-11-25T04:23:52.159Z,854.66
2018-11-25T04:24:52.476Z,854.73
2018-11-25T04:25:52.122Z,854.81
2018-11-25T04:26:52.435Z,854.83
2018-11-25T04:27:52.435Z,854.85
2018-11-25T04:28:52.417Z,854.83
2018-11-25T04:29:52.413Z,854.84
2018-11-25T04:30:52.081Z,854.82
2018-11-25T04:31:52.073Z,854.77
2018-11-25T04:32:52.094Z,854.80
2018-11-25T04:33:52.414Z,854.79
2018-11-25T04:34:52.096Z,854.77
2018-11-25T04:35:52.375Z,854.69
2018-11-25T04:36:52.073Z,854.63
2018-11-25T04:37:52.404Z,854.59
2018-11-25T04:38:52.019Z,854.58
2018-11-25T04:39:52.007Z,854.56
2018-11-25T04:40:52.390Z,854.55
2018-11-25T04:41:52.343Z,854.57
2018-11-25T04:42:52.018Z,854.58
2018-11-25T04:43:52.350Z,854.59
2018-11-25T04:44:52.007Z,854.60
2018-11-25T04:45:52.333Z,854.59
2018-11-25T04:46:51.974Z,854.58
2018-11-25T04:47:52.282Z,854.54
2018-11-25T04:48:51.949Z,854.57
2018-11-25T04:49:52.292Z,854.59
2018-11-25T04:50:52.250Z,854.60
2018-11-25T04:51:52.316Z,854.63
2018-11-25T04:52:51.946Z,854.66
2018-11-25T04:53:51.907Z,854.61
2018-11-25T04:54:52.260Z,854.46
2018-11-25T04:55:52.248Z,854.38
2018-11-25T04:56:51.928Z,854.37
2018-11-25T04:57:52.237Z,854.50
2018-11-25T04:58:52.241Z,854.64
2018-11-25T04:59:51.854Z,854.66
2018-11-25T05:00:51.899Z,854.63
2018-11-25T05:01:52.187Z,854.58
2018-11-25T05:02:51.869Z,854.50
2018-11-25T05:03:51.855Z,854.43
2018-11-25T05:04:52.159Z,854.47
2018-11-25T05:05:52.174Z,854.44
2018-11-25T05:06:52.143Z,854.41
2018-11-25T05:07:52.173Z,854.39
2018-11-25T05:08:51.836Z,854.38
2018-11-25T05:09:51.786Z,854.37
2018-11-25T05:10:51.806Z,854.36
2018-11-25T05:11:52.109Z,854.32
2018-11-25T05:12:52.083Z,854.30
2018-11-25T05:13:51.758Z,854.34
2018-11-25T05:14:52.087Z,854.41
2018-11-25T05:15:52.072Z,854.41
2018-11-25T05:16:52.087Z,854.43
2018-11-25T05:17:51.795Z,854.41
2018-11-25T05:18:51.760Z,854.37
2018-11-25T05:19:52.088Z,854.31
2018-11-25T05:20:51.714Z,854.30
2018-11-25T05:21:51.691Z,854.27
2018-11-25T05:22:52.040Z,854.20
2018-11-25T05:23:52.041Z,854.23
2018-11-25T05:24:51.696Z,854.28
2018-11-25T05:25:52.041Z,854.33
2018-11-25T05:26:51.996Z,854.22
2018-11-25T05:27:51.665Z,854.17
2018-11-25T05:28:51.655Z,854.22
2018-11-25T05:29:51.967Z,854.16
2018-11-25T05:30:52.015Z,854.12
2018-11-25T05:31:51.976Z,854.03
2018-11-25T05:32:51.977Z,854.04
2018-11-25T05:33:51.990Z,854.08
2018-11-25T05:34:51.982Z,854.08
2018-11-25T05:35:51.953Z,854.09
2018-11-25T05:36:51.588Z,854.19
2018-11-25T05:37:51.951Z,854.25
2018-11-25T05:38:51.632Z,854.15
2018-11-25T05:39:51.599Z,854.07
2018-11-25T05:40:51.572Z,854.06
2018-11-25T05:41:51.592Z,854.09
2018-11-25T05:42:51.911Z,854.16
2018-11-25T05:43:51.910Z,854.10
2018-11-25T05:44:51.873Z,854.05
2018-11-25T05:45:51.867Z,854.03
2018-11-25T05:46:51.896Z,854.00
2018-11-25T05:47:51.847Z,853.98
2018-11-25T05:48:51.500Z,854.00
2018-11-25T05:49:51.507Z,854.11
2018-11-25T05:50:51.497Z,854.25
2018-11-25T05:51:51.514Z,854.38
2018-11-25T05:52:51.845Z,854.50
2018-11-25T05:53:51.504Z,854.48
2018-11-25T05:54:51.825Z,854.54
2018-11-25T05:55:51.807Z,854.50
2018-11-25T05:56:51.785Z,854.34
2018-11-25T05:57:51.481Z,854.27
2018-11-25T05:58:51.478Z,854.25
2018-11-25T05:59:51.773Z,854.28
2018-11-25T06:00:51.452Z,854.22
2018-11-25T06:01:51.751Z,854.28
2018-11-25T06:02:51.422Z,854.31
2018-11-25T06:03:51.422Z,854.34
2018-11-25T06:04:51.397Z,854.27
2018-11-25T06:05:51.711Z,854.25
2018-11-25T06:06:51.410Z,854.29
2018-11-25T06:07:51.700Z,854.28
2018-11-25T06:08:51.679Z,854.21
2018-11-25T06:09:51.683Z,854.21
2018-11-25T06:10:51.376Z,854.28
2018-11-25T06:11:51.704Z,854.34
2018-11-25T06:12:51.681Z,854.32
2018-11-25T06:13:51.707Z,854.35
2018-11-25T06:14:51.684Z,854.30
2018-11-25T06:15:51.679Z,854.28
2018-11-25T06:16:51.347Z,854.20
2018-11-25T06:17:51.302Z,854.21
2018-11-25T06:18:51.281Z,854.16
2018-11-25T06:19:51.277Z,854.14
2018-11-25T06:20:51.267Z,854.08
2018-11-25T06:21:51.605Z,854.10
2018-11-25T06:22:51.594Z,854.09
2018-11-25T06:23:51.592Z,854.05
2018-11-25T06:24:51.275Z,854.02
2018-11-25T06:25:51.590Z,853.97
2018-11-25T06:26:51.248Z,854.02
2018-11-25T06:27:51.214Z,853.97
2018-11-25T06:28:51.211Z,854.00
2018-11-25T06:29:51.247Z,854.00
2018-11-25T06:30:51.228Z,854.01
2018-11-25T06:31:51.512Z,854.01
2018-11-25T06:32:51.195Z,854.05
2018-11-25T06:33:51.552Z,854.06
2018-11-25T06:34:51.517Z,853.98
2018-11-25T06:35:51.532Z,853.96
2018-11-25T06:36:51.491Z,853.93
2018-11-25T06:37:51.470Z,853.89
2018-11-25T06:38:51.157Z,853.92
2018-11-25T06:39:51.144Z,853.87
2018-11-25T06:40:51.151Z,853.84
2018-11-25T06:41:51.458Z,853.76
2018-11-25T06:42:51.479Z,853.74
2018-11-25T06:43:51.110Z,853.73
2018-11-25T06:44:51.459Z,853.75
2018-11-25T06:45:51.144Z,853.67
2018-11-25T06:46:51.093Z,853.70
2018-11-25T06:47:51.061Z,853.64
2018-11-25T06:48:55.000Z,853.62
2018-11-25T06:49:51.111Z,853.58
2018-11-25T06:50:51.389Z,853.57
2018-11-25T06:51:51.386Z,853.60
2018-11-25T06:52:51.058Z,853.65
2018-11-25T06:53:51.065Z,853.61
2018-11-25T06:54:51.396Z,853.59
2018-11-25T06:55:51.006Z,853.58
2018-11-25T06:56:50.989Z,853.56
2018-11-25T06:57:51.013Z,853.49
2018-11-25T06:58:50.995Z,853.53
2018-11-25T06:59:50.984Z,853.51
2018-11-25T07:00:51.332Z,853.45
2018-11-25T07:01:51.352Z,853.41
2018-11-25T07:02:51.325Z,853.40
2018-11-25T07:03:50.985Z,853.40
2018-11-25T07:04:50.954Z,853.38
2018-11-25T07:05:51.313Z,853.44
2018-11-25T07:06:50.966Z,853.49
2018-11-25T07:07:50.917Z,853.51
2018-11-25T07:08:51.241Z,853.48
2018-11-25T07:09:50.943Z,853.50
2018-11-25T07:10:50.927Z,853.42
2018-11-25T07:11:51.240Z,853.41
2018-11-25T07:12:51.252Z,853.39
2018-11-25T07:13:50.904Z,853.40
2018-11-25T07:14:51.220Z,853.38
2018-11-25T07:15:50.894Z,853.33
2018-11-25T07:16:50.847Z,853.31
2018-11-25T07:17:50.850Z,853.31
2018-11-25T07:18:51.216Z,853.35
2018-11-25T07:19:50.830Z,853.42
2018-11-25T07:20:50.829Z,853.47
2018-11-25T07:21:51.152Z,853.51
2018-11-25T07:22:52.543Z,853.56
2018-11-25T07:23:50.835Z,853.58
2018-11-25T07:24:51.125Z,853.55
2018-11-25T07:25:51.167Z,853.57
2018-11-25T07:26:50.812Z,853.55
2018-11-25T07:27:51.164Z,853.57
2018-11-25T07:28:51.125Z,853.49
2018-11-25T07:29:50.766Z,853.48
2018-11-25T07:30:51.111Z,853.54
2018-11-25T07:31:50.777Z,853.53
2018-11-25T07:32:51.096Z,853.54
2018-11-25T07:33:50.738Z,853.54
2018-11-25T07:34:51.088Z,853.49
2018-11-25T07:35:50.746Z,853.45
2018-11-25T07:36:50.703Z,853.44
2018-11-25T07:37:50.729Z,853.43
2018-11-25T07:38:50.733Z,853.40
2018-11-25T07:39:50.689Z,853.38
2018-11-25T07:40:51.039Z,853.35
2018-11-25T07:41:51.033Z,853.30
2018-11-25T07:42:51.048Z,853.32
2018-11-25T07:43:51.034Z,853.36
2018-11-25T07:44:50.993Z,853.33
2018-11-25T07:45:51.025Z,853.32
2018-11-25T07:46:51.001Z,853.25
2018-11-25T07:47:50.982Z,853.23
2018-11-25T07:48:50.991Z,853.21
2018-11-25T07:49:50.991Z,853.25
2018-11-25T07:50:50.962Z,853.27
2018-11-25T07:51:50.954Z,853.27
2018-11-25T07:52:50.979Z,853.26
2018-11-25T07:53:50.587Z,853.23
2018-11-25T07:54:50.619Z,853.16
2018-11-25T07:55:50.964Z,853.16
2018-11-25T07:56:50.566Z,853.13
2018-11-25T07:57:50.941Z,853.10
2018-11-25T07:58:50.934Z,853.10
2018-11-25T07:59:50.555Z,853.12
2018-11-25T08:00:50.926Z,853.11
2018-11-25T08:01:50.894Z,853.14
2018-11-25T08:02:50.852Z,853.14
2018-11-25T08:03:50.508Z,853.15
2018-11-25T08:04:50.501Z,853.14
2018-11-25T08:05:50.536Z,853.16
2018-11-25T08:06:50.827Z,853.19
2018-11-25T08:07:50.491Z,853.14
2018-11-25T08:08:50.863Z,853.13
2018-11-25T08:09:50.856Z,853.15
2018-11-25T08:10:50.494Z,853.12
2018-11-25T08:11:50.814Z,853.09
2018-11-25T08:12:50.457Z,853.05
2018-11-25T08:13:50.468Z,852.98
2018-11-25T08:14:50.482Z,853.03
2018-11-25T08:15:50.436Z,853.03
2018-11-25T08:16:50.785Z,853.04
2018-11-25T08:17:50.756Z,852.92
2018-11-25T08:18:50.758Z,852.88
2018-11-25T08:19:50.728Z,852.93
2018-11-25T08:20:50.726Z,852.87
2018-11-25T08:21:50.732Z,852.88
2018-11-25T08:22:50.383Z,852.89
2018-11-25T08:23:50.402Z,852.86
2018-11-25T08:24:50.394Z,852.83
2018-11-25T08:25:50.732Z,852.86
2018-11-25T08:26:50.382Z,852.85
2018-11-25T08:27:50.355Z,852.87
2018-11-25T08:28:50.700Z,852.90
2018-11-25T08:29:50.358Z,852.94
2018-11-25T08:30:50.654Z,852.98
2018-11-25T08:31:50.344Z,852.96
2018-11-25T08:32:50.635Z,852.97
2018-11-25T08:33:50.349Z,852.97
2018-11-25T08:34:50.651Z,852.96
2018-11-25T08:35:50.664Z,852.91
2018-11-25T08:36:50.606Z,852.89
2018-11-25T08:37:50.290Z,852.87
2018-11-25T08:38:50.603Z,852.83
2018-11-25T08:39:50.287Z,852.83
2018-11-25T08:40:50.290Z,852.79
2018-11-25T08:41:50.619Z,852.79
2018-11-25T08:42:50.232Z,852.76
2018-11-25T08:43:50.568Z,852.78
2018-11-25T08:44:50.589Z,852.79
2018-11-25T08:45:50.580Z,852.77
2018-11-25T08:46:50.249Z,852.78
2018-11-25T08:47:50.237Z,852.74
2018-11-25T08:48:50.233Z,852.75
2018-11-25T08:49:50.183Z,852.72
2018-11-25T08:50:50.567Z,852.77
2018-11-25T08:51:50.515Z,852.76
2018-11-25T08:52:50.504Z,852.73
2018-11-25T08:53:50.159Z,852.65
2018-11-25T08:54:50.490Z,852.64
2018-11-25T08:55:50.496Z,852.66
2018-11-25T08:56:50.159Z,852.66
2018-11-25T08:57:50.136Z,852.62
2018-11-25T08:58:50.489Z,852.52
2018-11-25T08:59:50.467Z,852.51
2018-11-25T09:00:50.129Z,852.50
2018-11-25T09:01:50.461Z,852.46
2018-11-25T09:02:50.437Z,852.40
2018-11-25T09:03:50.134Z,852.37
2018-11-25T09:04:50.415Z,852.38
2018-11-25T09:05:50.064Z,852.34
2018-11-25T09:06:50.117Z,852.40
2018-11-25T09:07:50.052Z,852.41
2018-11-25T09:08:50.414Z,852.47
2018-11-25T09:09:50.404Z,852.49
2018-11-25T09:10:50.064Z,852.45
2018-11-25T09:11:50.060Z,852.44
2018-11-25T09:12:55.184Z,852.44
2018-11-25T09:13:50.034Z,852.35
2018-11-25T09:14:50.041Z,852.37
2018-11-25T09:15:50.352Z,852.30
2018-11-25T09:16:50.364Z,852.26
2018-11-25T09:17:50.018Z,852.28
2018-11-25T09:18:50.008Z,852.29
2018-11-25T09:19:50.313Z,852.31
2018-11-25T09:20:50.339Z,852.35
2018-11-25T09:21:50.296Z,852.40
2018-11-25T09:22:50.305Z,852.48
2018-11-25T09:23:49.943Z,852.51
2018-11-25T09:24:50.297Z,852.50
2018-11-25T09:25:50.291Z,852.55
2018-11-25T09:26:50.279Z,852.49
2018-11-25T09:27:50.294Z,852.46
2018-11-25T09:28:50.238Z,852.42
2018-11-25T09:29:50.261Z,852.39
2018-11-25T09:30:49.918Z,852.41
2018-11-25T09:31:50.262Z,852.41
2018-11-25T09:32:50.252Z,852.36
2018-11-25T09:33:50.253Z,852.39
2018-11-25T09:34:50.227Z,852.40
2018-11-25T09:35:49.858Z,852.38
2018-11-25T09:36:49.847Z,852.40
2018-11-25T09:37:50.184Z,852.36
2018-11-25T09:38:50.197Z,852.35
2018-11-25T09:39:50.156Z,852.39
2018-11-25T09:40:49.811Z,852.36
2018-11-25T09:41:50.163Z,852.40
2018-11-25T09:42:50.172Z,852.39
2018-11-25T09:43:50.142Z,852.37
2018-11-25T09:44:49.832Z,852.35
2018-11-25T09:45:49.824Z,852.36
2018-11-25T09:46:49.778Z,852.41
2018-11-25T09:47:49.795Z,852.44
2018-11-25T09:48:50.120Z,852.51
2018-11-25T09:49:49.751Z,852.41
2018-11-25T09:50:50.126Z,852.39
2018-11-25T09:51:50.089Z,852.35
2018-11-25T09:52:49.730Z,852.39
2018-11-25T09:53:49.752Z,852.37
2018-11-25T09:54:50.093Z,852.39
2018-11-25T09:55:50.083Z,852.39
2018-11-25T09:56:50.064Z,852.42
2018-11-25T09:57:49.743Z,852.46
2018-11-25T09:58:49.695Z,852.49
2018-11-25T09:59:49.714Z,852.55
2018-11-25T10:00:49.676Z,852.61
2018-11-25T10:01:50.029Z,852.59
2018-11-25T10:02:50.045Z,852.60
2018-11-25T10:03:50.012Z,852.58
2018-11-25T10:04:49.993Z,852.57
2018-11-25T10:05:50.003Z,852.61
2018-11-25T10:06:49.660Z,852.61
2018-11-25T10:07:49.627Z,852.58
2018-11-25T10:08:50.006Z,852.55
2018-11-25T10:09:49.988Z,852.55
2018-11-25T10:10:52.700Z,852.52
2018-11-25T10:11:49.972Z,852.50
2018-11-25T10:12:49.595Z,852.51
2018-11-25T10:13:49.958Z,852.54
2018-11-25T10:14:49.910Z,852.54
2018-11-25T10:15:49.561Z,852.50
2018-11-25T10:16:49.599Z,852.46
2018-11-25T10:17:49.554Z,852.46
2018-11-25T10:18:49.944Z,852.45
2018-11-25T10:19:49.906Z,852.47
2018-11-25T10:20:49.899Z,852.50
2018-11-25T10:21:49.908Z,852.47
2018-11-25T10:22:49.888Z,852.51
2018-11-25T10:23:49.559Z,852.56
2018-11-25T10:24:49.548Z,852.57
2018-11-25T10:25:49.841Z,852.58
2018-11-25T10:26:49.489Z,852.54
2018-11-25T10:27:49.876Z,852.50
2018-11-25T10:28:49.846Z,852.46
2018-11-25T10:29:49.476Z,852.42
2018-11-25T10:30:49.848Z,852.36
2018-11-25T10:31:49.822Z,852.46
2018-11-25T10:32:49.475Z,852.47
2018-11-25T10:33:49.792Z,852.51
2018-11-25T10:34:49.437Z,852.53
2018-11-25T10:35:49.466Z,852.60
2018-11-25T10:36:49.752Z,852.62
2018-11-25T10:37:49.459Z,852.64
2018-11-25T10:38:49.444Z,852.66
2018-11-25T10:39:49.452Z,852.70
2018-11-25T10:40:49.426Z,852.70
2018-11-25T10:41:49.778Z,852.72
2018-11-25T10:42:49.770Z,852.77
2018-11-25T10:43:49.454Z,852.83
2018-11-25T10:44:49.398Z,852.88
2018-11-25T10:45:49.706Z,852.89
2018-11-25T10:46:49.719Z,852.90
2018-11-25T10:47:49.333Z,852.96
2018-11-25T10:48:49.687Z,852.96
2018-11-25T10:49:49.321Z,852.99
2018-11-25T10:50:51.217Z,853.06
2018-11-25T10:51:49.315Z,853.07
2018-11-25T10:52:49.308Z,853.17
2018-11-25T10:53:49.682Z,853.16
2018-11-25T10:54:49.674Z,853.25
2018-11-25T10:55:49.633Z,853.23
2018-11-25T10:56:49.633Z,853.32
2018-11-25T10:57:49.634Z,853.36
2018-11-25T10:58:49.684Z,853.40
2018-11-25T10:59:49.295Z,853.43
2018-11-25T11:00:49.251Z,853.47
2018-11-25T11:01:49.583Z,853.51
2018-11-25T11:02:49.619Z,853.64
2018-11-25T11:03:49.560Z,853.79
2018-11-25T11:04:49.593Z,853.82
2018-11-25T11:05:49.588Z,853.83
2018-11-25T11:06:49.240Z,853.81
2018-11-25T11:07:49.233Z,853.80
2018-11-25T11:08:49.218Z,853.74
2018-11-25T11:09:49.224Z,853.70
2018-11-25T11:10:49.208Z,853.64
2018-11-25T11:11:49.549Z,853.66
2018-11-25T11:12:49.501Z,853.72
2018-11-25T11:13:49.194Z,853.73
2018-11-25T11:14:49.141Z,853.66
2018-11-25T11:15:49.169Z,853.73
2018-11-25T11:16:53.820Z,853.66
2018-11-25T11:17:49.489Z,853.63
2018-11-25T11:18:49.127Z,853.71
2018-11-25T11:19:49.156Z,853.75
2018-11-25T11:20:49.472Z,853.79
2018-11-25T11:21:49.458Z,853.77
2018-11-25T11:22:49.123Z,853.89
2018-11-25T11:23:49.105Z,853.89
2018-11-25T11:24:49.441Z,853.89
2018-11-25T11:25:49.094Z,853.85
2018-11-25T11:26:49.435Z,853.88
2018-11-25T11:27:49.056Z,853.85
2018-11-25T11:28:49.433Z,853.94
2018-11-25T11:29:49.426Z,853.98
2018-11-25T11:30:49.395Z,854.05
2018-11-25T11:31:49.050Z,854.10
2018-11-25T11:32:49.394Z,854.11
2018-11-25T11:33:49.381Z,854.08
2018-11-25T11:34:49.008Z,854.11
2018-11-25T11:35:48.993Z,854.12
2018-11-25T11:36:49.022Z,854.15
2018-11-25T11:37:48.996Z,854.16
2018-11-25T11:38:49.374Z,854.21
2018-11-25T11:39:49.345Z,854.26
2018-11-25T11:40:49.322Z,854.21
2018-11-25T11:41:49.292Z,854.07
2018-11-25T11:42:49.341Z,854.07
2018-11-25T11:43:49.272Z,854.06
2018-11-25T11:44:48.938Z,854.08
2018-11-25T11:45:49.310Z,854.14
2018-11-25T11:46:48.932Z,854.07
2018-11-25T11:47:48.915Z,854.11
2018-11-25T11:48:48.907Z,854.09
2018-11-25T11:49:49.264Z,854.17
2018-11-25T11:50:48.930Z,854.18
2018-11-25T11:51:49.269Z,854.24
2018-11-25T11:52:48.881Z,854.31
2018-11-25T11:53:49.230Z,854.31
2018-11-25T11:54:49.241Z,854.38
2018-11-25T11:55:49.204Z,854.41
2018-11-25T11:56:48.886Z,854.48
2018-11-25T11:57:48.884Z,854.52
2018-11-25T11:58:48.882Z,854.53
2018-11-25T11:59:49.213Z,854.56
2018-11-25T12:00:48.844Z,854.64
2018-11-25T12:01:48.815Z,854.67
2018-11-25T12:02:49.165Z,854.69
2018-11-25T12:03:49.173Z,854.72
2018-11-25T12:04:49.171Z,854.72
2018-11-25T12:05:49.167Z,854.72
2018-11-25T12:06:48.825Z,854.78
2018-11-25T12:07:49.107Z,854.79
2018-11-25T12:08:49.120Z,854.78
2018-11-25T12:09:48.782Z,854.84
2018-11-25T12:10:48.752Z,854.86
2018-11-25T12:11:49.073Z,854.90
2018-11-25T12:12:49.131Z,854.88
2018-11-25T12:13:48.727Z,854.96
2018-11-25T12:14:50.301Z,854.96
2018-11-25T12:15:48.749Z,854.93
2018-11-25T12:16:48.735Z,854.97
2018-11-25T12:17:49.061Z,854.97
2018-11-25T12:18:49.086Z,855.03
2018-11-25T12:19:49.041Z,855.02
2018-11-25T12:20:48.718Z,854.98
2018-11-25T12:21:49.028Z,854.97
2018-11-25T12:22:48.654Z,854.98
2018-11-25T12:23:48.981Z,854.95
2018-11-25T12:24:49.013Z,855.01
2018-11-25T12:25:49.024Z,855.08
2018-11-25T12:26:48.990Z,855.12
2018-11-25T12:27:49.024Z,855.17
2018-11-25T12:28:48.986Z,855.24